Terminal Aerodrome Forecast
Issued by NWS Charleston, WV

Home | Current Version | Previous Version | Text Only | Print | Product List | Glossary On
Versions: 1 2 3 4 5 6 7 8 9 10 11 12 13 14 15 16 17 18 19 20 21 22 23
000
FTUS41 KRLX 200200 AAA
TAFPKB
TAF AMD
KPKB 200228Z 2002/2024 VRB03KT 6SM HZ SCT120
     FM200600 VRB03KT 5SM BR BKN035 BKN080
      TEMPO 2006/2008 1SM TSRA BR BKN025CB
     FM200800 VRB03KT 3SM -SHRA BR BKN025
     FM201400 17003KT 5SM HZ BKN025
     FM201800 22006KT 6SM HZ BKN035=

USA.gov is the U.S. government's official web portal to all federal, state and local government web resources and services.